Time;durP1;ratioP1;P1;durP2;ratioP2;P2;SDS_P1;SDS_P2;PMS_P1;PMS_P2;Temp;Humidity;BMP_temperature;BMP_pressure;BME280_temperature;BME280_humidity;BME280_pressure;Samples;Min_cycle;Max_cycle;Signal;HPM_P1;HPM_P2
2023/07/20 00:01:16;;;;;;;6.93;3.05;;;25.10;88.00;;;;;;5056118;28;20037;-72
2023/07/20 00:03:42;;;;;;;8.85;2.90;;;25.10;87.50;;;;;;5056094;28;20024;-72
2023/07/20 00:06:08;;;;;;;8.30;2.70;;;25.10;87.20;;;;;;5055718;28;20467;-72
2023/07/20 00:08:33;;;;;;;7.63;2.70;;;25.00;86.40;;;;;;5055760;28;20100;-72
2023/07/20 00:10:59;;;;;;;7.28;2.80;;;25.10;85.60;;;;;;5055832;28;20079;-72
2023/07/20 00:13:25;;;;;;;8.52;3.10;;;25.10;84.00;;;;;;5055732;28;20017;-72
2023/07/20 00:15:52;;;;;;;7.93;3.45;;;25.10;83.50;;;;;;5055629;28;20475;-72
2023/07/20 00:18:21;;;;;;;9.60;3.00;;;25.10;82.90;;;;;;5055671;28;20040;-72
2023/07/20 00:20:47;;;;;;;6.90;2.78;;;25.10;83.00;;;;;;5055650;28;20067;-72
2023/07/20 00:23:13;;;;;;;9.55;3.45;;;25.10;83.10;;;;;;5054673;28;20025;-72
2023/07/20 00:25:38;;;;;;;7.18;2.92;;;25.00;83.60;;;;;;5055784;28;20100;-72
2023/07/20 00:28:04;;;;;;;10.52;3.00;;;25.00;84.30;;;;;;5055640;28;20025;-72
2023/07/20 00:30:30;;;;;;;6.35;2.75;;;25.00;84.50;;;;;;5055359;28;20028;-72
2023/07/20 00:32:56;;;;;;;8.68;3.15;;;25.00;84.40;;;;;;5055661;28;20029;-72
2023/07/20 00:35:21;;;;;;;6.55;2.80;;;25.00;84.30;;;;;;5055459;28;20494;-72
2023/07/20 00:37:47;;;;;;;8.98;3.25;;;25.00;84.30;;;;;;5055259;28;20060;-72
2023/07/20 00:40:13;;;;;;;11.20;3.13;;;25.00;84.20;;;;;;5055181;28;20017;-72
2023/07/20 00:42:39;;;;;;;6.43;3.10;;;25.00;84.30;;;;;;5055340;28;20025;-72
2023/07/20 00:45:05;;;;;;;5.38;3.15;;;25.00;84.50;;;;;;5055294;28;20013;-72
2023/07/20 00:47:32;;;;;;;6.63;2.55;;;25.00;85.00;;;;;;5055102;28;20475;-72
2023/07/20 00:49:58;;;;;;;7.40;3.10;;;24.90;84.90;;;;;;5055097;28;20028;-73
2023/07/20 00:52:26;;;;;;;14.02;3.15;;;24.90;84.80;;;;;;5055114;28;20100;-73
2023/07/20 00:54:56;;;;;;;6.75;2.85;;;24.90;85.00;;;;;;5054913;28;20017;-73
2023/07/20 00:57:23;;;;;;;12.57;3.08;;;24.90;85.20;;;;;;5037166;28;20029;-72
2023/07/20 00:59:49;;;;;;;8.00;3.13;;;24.80;85.30;;;;;;5052432;28;20027;-73
2023/07/20 01:02:15;;;;;;;7.68;2.70;;;24.80;85.70;;;;;;5051954;28;20104;-73
2023/07/20 01:04:41;;;;;;;9.68;3.50;;;24.80;85.80;;;;;;5053038;28;20029;-73
2023/07/20 01:07:17;;;;;;;5.38;3.10;;;24.80;86.40;;;;;;5054297;28;20475;-73
2023/07/20 01:09:55;;;;;;;8.25;3.10;;;24.80;86.70;;;;;;5054699;28;20025;-72
2023/07/20 01:12:35;;;;;;;7.55;3.10;;;24.80;86.60;;;;;;5054599;28;20027;-73
2023/07/20 01:15:02;;;;;;;8.75;3.10;;;24.80;86.70;;;;;;5054539;28;20088;-73
2023/07/20 01:17:28;;;;;;;9.90;3.00;;;24.70;86.50;;;;;;5054489;28;20041;-73
2023/07/20 01:19:53;;;;;;;7.65;3.00;;;24.70;87.40;;;;;;5054678;28;20075;-72
2023/07/20 01:22:25;;;;;;;5.43;2.55;;;24.70;86.80;;;;;;5054499;28;20013;-73
2023/07/20 01:24:54;;;;;;;5.38;2.60;;;24.70;86.90;;;;;;5054461;28;20064;-73
2023/07/20 01:27:47;;;;;;;8.07;3.60;;;24.70;87.00;;;;;;5054114;28;20475;-73
2023/07/20 01:30:35;;;;;;;9.25;3.47;;;24.70;87.30;;;;;;5054373;28;20032;-73
2023/07/20 01:33:02;;;;;;;6.97;3.17;;;24.70;87.00;;;;;;5054345;28;20033;-73
2023/07/20 01:35:30;;;;;;;9.98;3.28;;;24.70;87.00;;;;;;5054000;28;20025;-73
2023/07/20 01:37:57;;;;;;;7.35;3.22;;;24.60;86.90;;;;;;5053992;28;20110;-73
2023/07/20 01:40:25;;;;;;;10.27;3.88;;;24.60;87.10;;;;;;5054126;28;20095;-73
2023/07/20 01:42:52;;;;;;;7.88;3.05;;;24.60;87.30;;;;;;5054168;28;20086;-73
2023/07/20 01:45:18;;;;;;;10.20;3.20;;;24.60;87.40;;;;;;5054224;28;20025;-73
2023/07/20 01:47:43;;;;;;;7.93;3.30;;;24.50;87.20;;;;;;5053669;28;20060;-73
2023/07/20 01:50:09;;;;;;;6.93;3.00;;;24.60;87.10;;;;;;5054264;28;20467;-73
2023/07/20 01:52:35;;;;;;;6.78;2.90;;;24.60;86.70;;;;;;5054169;28;20024;-72
2023/07/20 01:55:02;;;;;;;6.90;3.30;;;24.60;86.10;;;;;;5054253;28;20031;-72
2023/07/20 01:57:27;;;;;;;8.55;3.20;;;24.60;86.20;;;;;;5053996;28;20018;-73
2023/07/20 01:59:53;;;;;;;7.97;3.08;;;24.50;86.20;;;;;;5053864;28;20028;-73
2023/07/20 02:02:20;;;;;;;5.97;3.38;;;24.60;86.80;;;;;;5035700;28;20043;-73
2023/07/20 02:04:46;;;;;;;9.73;3.00;;;24.50;86.80;;;;;;5054113;28;20057;-72
2023/07/20 02:07:12;;;;;;;5.78;3.05;;;24.50;86.80;;;;;;5053796;28;20465;-72
2023/07/20 02:09:37;;;;;;;8.32;3.08;;;24.50;87.00;;;;;;5054104;28;20032;-73
2023/07/20 02:12:03;;;;;;;6.47;3.50;;;24.50;87.20;;;;;;5053672;28;20029;-73
2023/07/20 02:14:29;;;;;;;7.45;2.90;;;24.50;87.20;;;;;;5035670;28;20025;-73
2023/07/20 02:16:57;;;;;;;7.15;3.10;;;24.50;87.30;;;;;;5053448;28;20491;-73
2023/07/20 02:19:26;;;;;;;9.43;3.00;;;24.50;87.40;;;;;;5053848;28;20128;-73
2023/07/20 02:21:52;;;;;;;8.23;3.22;;;24.50;87.40;;;;;;5053567;28;20394;-73
2023/07/20 02:24:19;;;;;;;5.72;3.08;;;24.50;87.50;;;;;;5053037;28;20075;-73
2023/07/20 02:26:44;;;;;;;6.25;3.30;;;24.50;87.40;;;;;;5053473;28;20064;-73
2023/07/20 02:29:11;;;;;;;3.85;2.55;;;24.50;87.20;;;;;;5053315;28;20025;-73
2023/07/20 02:31:39;;;;;;;8.35;2.88;;;24.50;87.10;;;;;;5053396;28;20056;-73
2023/07/20 02:34:06;;;;;;;6.78;2.67;;;24.50;87.00;;;;;;5035590;28;20025;-73
2023/07/20 02:36:35;;;;;;;8.48;2.95;;;24.50;86.80;;;;;;5053294;28;20032;-73
2023/07/20 02:39:02;;;;;;;8.63;2.97;;;24.50;86.60;;;;;;5053135;28;20047;-73
2023/07/20 02:41:28;;;;;;;7.50;3.45;;;24.50;86.60;;;;;;5053103;28;20051;-73
2023/07/20 02:43:54;;;;;;;6.15;2.90;;;24.50;86.60;;;;;;5052849;28;20029;-73
2023/07/20 02:46:19;;;;;;;7.18;2.60;;;24.50;86.40;;;;;;5052353;28;20032;-72
2023/07/20 02:48:45;;;;;;;8.85;3.53;;;24.50;86.90;;;;;;5053173;28;20025;-72
2023/07/20 02:51:12;;;;;;;11.82;3.13;;;24.50;86.10;;;;;;5035262;28;20024;-72
2023/07/20 02:53:38;;;;;;;9.00;2.88;;;24.50;86.60;;;;;;5052915;28;20055;-72
2023/07/20 02:56:04;;;;;;;4.50;2.85;;;24.50;86.90;;;;;;5052586;28;20032;-71
2023/07/20 02:58:29;;;;;;;8.57;3.03;;;24.50;86.60;;;;;;5052721;28;20021;-72
2023/07/20 03:00:55;;;;;;;9.80;3.20;;;24.50;86.70;;;;;;5052987;28;20075;-72
2023/07/20 03:03:21;;;;;;;11.23;3.40;;;24.50;86.80;;;;;;5052887;28;20021;-72
2023/07/20 03:05:46;;;;;;;8.75;3.30;;;24.40;86.90;;;;;;5052642;28;20032;-72
2023/07/20 03:08:13;;;;;;;5.85;2.92;;;24.40;87.10;;;;;;5052684;28;20120;-72
2023/07/20 03:10:40;;;;;;;8.63;3.45;;;24.40;87.00;;;;;;5052546;28;20021;-73
2023/07/20 03:13:06;;;;;;;5.40;2.95;;;24.40;87.10;;;;;;5052324;28;20033;-73
2023/07/20 03:15:32;;;;;;;8.10;3.08;;;24.30;87.30;;;;;;5052663;28;20025;-72
2023/07/20 03:17:58;;;;;;;10.15;3.15;;;24.30;87.70;;;;;;5052384;28;20052;-72
2023/07/20 03:20:24;;;;;;;7.68;3.00;;;24.30;87.90;;;;;;5052545;28;20497;-72
2023/07/20 03:22:50;;;;;;;11.98;2.85;;;24.30;88.20;;;;;;5052616;28;20474;-72
2023/07/20 03:25:17;;;;;;;9.27;3.42;;;24.20;88.40;;;;;;5052651;28;20158;-72
2023/07/20 03:27:43;;;;;;;8.93;3.28;;;24.20;88.50;;;;;;5052175;28;20128;-73
2023/07/20 03:30:09;;;;;;;11.20;4.00;;;24.20;89.10;;;;;;5052613;28;20126;-72
2023/07/20 03:32:35;;;;;;;9.80;3.20;;;24.20;89.60;;;;;;5052503;28;20375;-72
2023/07/20 03:35:02;;;;;;;10.25;3.50;;;24.20;90.10;;;;;;5052204;28;20031;-72
2023/07/20 03:37:28;;;;;;;8.60;3.17;;;24.10;90.20;;;;;;5052488;28;20478;-72
2023/07/20 03:39:53;;;;;;;6.85;3.47;;;24.10;90.20;;;;;;5052585;28;20092;-72
2023/07/20 03:42:19;;;;;;;8.18;3.55;;;24.10;90.30;;;;;;5052353;28;20045;-72
2023/07/20 03:44:45;;;;;;;11.32;3.97;;;24.00;90.30;;;;;;5052612;28;20029;-72
2023/07/20 03:47:10;;;;;;;11.95;3.65;;;24.00;90.30;;;;;;5052398;28;20029;-72
2023/07/20 03:49:36;;;;;;;9.32;3.53;;;24.00;90.30;;;;;;5052321;28;20025;-72
2023/07/20 03:52:05;;;;;;;8.02;3.70;;;24.00;90.30;;;;;;5034495;28;20025;-72
2023/07/20 03:54:31;;;;;;;11.43;3.50;;;23.90;90.20;;;;;;5052176;28;20096;-72
2023/07/20 03:56:57;;;;;;;9.38;3.60;;;23.90;90.10;;;;;;5052538;28;20487;-72
2023/07/20 03:59:22;;;;;;;14.30;3.33;;;23.90;90.20;;;;;;5056059;28;20029;-72
2023/07/20 04:01:48;;;;;;;8.80;3.80;;;23.80;90.30;;;;;;5056286;28;20033;-72
2023/07/20 04:04:16;;;;;;;15.32;4.25;;;23.70;90.30;;;;;;5056235;28;20060;-72
2023/07/20 04:06:44;;;;;;;6.15;3.03;;;23.70;90.50;;;;;;5055714;28;20082;-72
2023/07/20 04:09:11;;;;;;;9.18;3.10;;;23.70;90.60;;;;;;5055809;28;20428;-72
2023/07/20 04:11:37;;;;;;;9.93;3.67;;;23.70;90.60;;;;;;5037792;28;20482;-72
2023/07/20 04:14:02;;;;;;;9.23;3.03;;;23.70;90.60;;;;;;5055791;28;20017;-72
2023/07/20 04:16:28;;;;;;;7.95;3.03;;;23.70;90.60;;;;;;5055749;28;20033;-72
2023/07/20 04:18:57;;;;;;;8.85;3.40;;;23.70;90.40;;;;;;5055754;28;20123;-73
2023/07/20 04:21:25;;;;;;;8.43;3.30;;;23.60;90.30;;;;;;5055835;28;20433;-72
2023/07/20 04:23:51;;;;;;;8.50;3.70;;;23.60;90.30;;;;;;5055404;28;20031;-72
2023/07/20 04:26:17;;;;;;;12.00;3.53;;;23.60;90.60;;;;;;5055466;28;20025;-72
2023/07/20 04:28:43;;;;;;;9.90;3.17;;;23.60;90.70;;;;;;5055476;28;20064;-72
2023/07/20 04:31:16;;;;;;;13.98;3.55;;;23.60;90.80;;;;;;5055562;28;20017;-72
2023/07/20 04:33:41;;;;;;;9.48;3.60;;;23.60;90.80;;;;;;5055358;28;20391;-73
2023/07/20 04:36:09;;;;;;;9.07;3.25;;;23.50;90.80;;;;;;5055506;28;20021;-72
2023/07/20 04:38:34;;;;;;;8.65;3.38;;;23.60;90.90;;;;;;5055169;28;20025;-72
2023/07/20 04:41:00;;;;;;;8.27;3.10;;;23.60;90.90;;;;;;5055339;28;20033;-72
2023/07/20 04:43:27;;;;;;;8.63;3.25;;;23.60;90.80;;;;;;5055117;28;20029;-72
2023/07/20 04:45:52;;;;;;;5.72;3.65;;;23.60;90.80;;;;;;5055164;28;20033;-73
2023/07/20 04:48:18;;;;;;;11.82;3.25;;;23.70;90.70;;;;;;5055229;28;20029;-72
2023/07/20 04:50:45;;;;;;;9.00;3.22;;;23.70;90.80;;;;;;5055025;28;20079;-72
2023/07/20 04:53:12;;;;;;;8.50;3.40;;;23.70;90.80;;;;;;5055279;28;20028;-73
2023/07/20 04:55:50;;;;;;;10.18;3.30;;;23.80;90.70;;;;;;5055159;28;20029;-72
2023/07/20 04:58:16;;;;;;;8.98;3.00;;;23.80;90.60;;;;;;5055081;28;20020;-72
2023/07/20 05:00:42;;;;;;;7.75;2.80;;;23.80;90.50;;;;;;5054832;28;20027;-72
2023/07/20 05:03:08;;;;;;;6.13;3.08;;;23.90;90.60;;;;;;5055021;28;20382;-72
2023/07/20 05:05:34;;;;;;;5.97;3.08;;;23.90;90.50;;;;;;5054724;28;20103;-72
2023/07/20 05:07:59;;;;;;;5.60;2.85;;;23.90;90.50;;;;;;5054364;28;20087;-72
2023/07/20 05:10:25;;;;;;;7.15;3.08;;;23.90;90.70;;;;;;5054657;28;20017;-72
2023/07/20 05:12:51;;;;;;;9.50;3.22;;;24.00;90.90;;;;;;5054619;28;20060;-72
2023/07/20 05:15:17;;;;;;;6.55;3.08;;;24.00;90.80;;;;;;5054632;28;20424;-72
2023/07/20 05:17:43;;;;;;;7.47;2.90;;;24.00;90.70;;;;;;5054256;28;20057;-72
2023/07/20 05:20:12;;;;;;;6.45;2.85;;;24.10;90.50;;;;;;5054544;28;20056;-72
2023/07/20 05:22:41;;;;;;;5.93;3.30;;;24.10;90.50;;;;;;5054500;28;20103;-72
2023/07/20 05:25:08;;;;;;;10.40;3.40;;;24.20;90.60;;;;;;5054539;28;20029;-73
2023/07/20 05:27:36;;;;;;;8.43;3.08;;;24.20;90.60;;;;;;5054636;28;20045;-72
2023/07/20 05:30:02;;;;;;;7.93;2.72;;;24.20;90.40;;;;;;5054467;28;20467;-72
2023/07/20 05:32:28;;;;;;;9.98;2.60;;;24.20;90.30;;;;;;5054337;28;20075;-72
2023/07/20 05:34:54;;;;;;;8.02;2.70;;;24.30;90.20;;;;;;5036383;28;20029;-73
2023/07/20 05:37:20;;;;;;;9.07;2.70;;;24.30;90.00;;;;;;5054417;28;20056;-72
2023/07/20 05:39:46;;;;;;;8.40;2.50;;;24.40;89.70;;;;;;5054371;28;20098;-73
2023/07/20 05:42:12;;;;;;;8.35;2.80;;;24.40;89.20;;;;;;5053859;28;20024;-72
2023/07/20 05:44:38;;;;;;;6.85;2.65;;;24.50;88.70;;;;;;5054201;28;20103;-72
2023/07/20 05:47:04;;;;;;;5.78;2.40;;;24.60;88.30;;;;;;5054260;28;20033;-72
2023/07/20 05:49:30;;;;;;;5.15;2.50;;;24.60;88.50;;;;;;5054020;28;20024;-72
2023/07/20 05:51:56;;;;;;;6.50;2.20;;;24.70;87.80;;;;;;5054138;28;20021;-72
2023/07/20 05:54:24;;;;;;;13.68;2.35;;;24.70;87.70;;;;;;5053973;28;20024;-73
2023/07/20 05:56:50;;;;;;;6.85;2.58;;;24.70;87.60;;;;;;5054118;28;20025;-72
2023/07/20 05:59:16;;;;;;;7.75;2.88;;;24.70;87.60;;;;;;5053934;28;20389;-73
2023/07/20 06:01:42;;;;;;;8.77;2.30;;;24.70;87.60;;;;;;5053923;28;20021;-73
2023/07/20 06:04:08;;;;;;;8.07;2.33;;;24.70;87.40;;;;;;5053818;28;20028;-72
2023/07/20 06:06:34;;;;;;;8.18;2.65;;;24.80;87.10;;;;;;5053482;28;20037;-73
2023/07/20 06:09:03;;;;;;;10.77;2.38;;;24.80;87.00;;;;;;5053707;28;20028;-72
2023/07/20 06:11:30;;;;;;;5.25;2.35;;;24.80;87.20;;;;;;5053489;28;20114;-72
2023/07/20 06:13:57;;;;;;;8.45;2.47;;;24.80;87.10;;;;;;5053348;28;20127;-73
2023/07/20 06:16:22;;;;;;;6.25;2.40;;;24.80;86.70;;;;;;5053157;28;20057;-73
2023/07/20 06:18:48;;;;;;;3.97;2.10;;;24.90;86.70;;;;;;5053502;28;20481;-73
2023/07/20 06:21:14;;;;;;;7.93;2.20;;;25.00;86.50;;;;;;5052616;28;20418;-73
2023/07/20 06:23:41;;;;;;;7.95;2.20;;;25.00;85.80;;;;;;5053535;28;20044;-72
2023/07/20 06:26:07;;;;;;;9.35;2.20;;;25.10;85.10;;;;;;5053305;28;20475;-73
2023/07/20 06:28:33;;;;;;;4.15;2.10;;;25.20;84.50;;;;;;5053305;28;20529;-72
2023/07/20 06:31:03;;;;;;;11.70;2.65;;;25.20;84.80;;;;;;5053357;28;20017;-73
2023/07/20 06:33:29;;;;;;;7.05;2.00;;;25.30;84.80;;;;;;5053457;28;20025;-72
2023/07/20 06:35:56;;;;;;;5.35;2.35;;;25.30;84.80;;;;;;5053214;28;20029;-72
2023/07/20 06:38:23;;;;;;;7.50;2.05;;;25.40;83.80;;;;;;5053255;28;20043;-72
2023/07/20 06:40:49;;;;;;;9.35;2.42;;;25.40;83.40;;;;;;5053062;28;20057;-73
2023/07/20 06:43:16;;;;;;;3.95;1.63;;;25.40;82.60;;;;;;5053492;28;20426;-72
2023/07/20 06:45:42;;;;;;;5.82;2.00;;;25.50;82.00;;;;;;5052994;28;20513;-73
2023/07/20 06:48:08;;;;;;;4.85;1.67;;;25.50;81.30;;;;;;5052861;28;20052;-73
2023/07/20 06:50:33;;;;;;;6.18;1.70;;;25.60;80.90;;;;;;5052986;28;20021;-72
2023/07/20 06:52:59;;;;;;;4.50;1.70;;;25.60;80.50;;;;;;5053119;28;20029;-73
2023/07/20 06:55:26;;;;;;;9.13;2.88;;;25.60;80.20;;;;;;5052704;28;20021;-73
2023/07/20 06:57:52;;;;;;;3.35;1.45;;;25.60;80.10;;;;;;5052984;28;20029;-72
2023/07/20 07:00:18;;;;;;;6.53;1.85;;;25.70;79.40;;;;;;5052763;28;20025;-73
2023/07/20 07:02:44;;;;;;;8.80;2.10;;;25.70;78.60;;;;;;5053019;28;20490;-73
2023/07/20 07:05:09;;;;;;;7.93;1.60;;;25.80;78.50;;;;;;5052859;28;20086;-72
2023/07/20 07:07:35;;;;;;;4.35;1.67;;;25.80;78.60;;;;;;5052688;28;20037;-72
2023/07/20 07:10:04;;;;;;;5.72;1.73;;;25.80;78.50;;;;;;5052589;28;20029;-71
2023/07/20 07:12:30;;;;;;;8.20;1.92;;;25.80;78.80;;;;;;5052822;28;20078;-72
2023/07/20 07:14:56;;;;;;;3.22;1.48;;;25.90;78.70;;;;;;5052971;28;20069;-72
2023/07/20 07:17:21;;;;;;;7.72;1.80;;;25.90;77.60;;;;;;5052432;28;20556;-71
2023/07/20 07:19:48;;;;;;;6.57;1.70;;;25.90;77.20;;;;;;5052532;28;20025;-71
2023/07/20 07:22:13;;;;;;;3.95;1.52;;;26.00;77.20;;;;;;5052791;28;20033;-71
2023/07/20 07:24:41;;;;;;;5.47;1.75;;;26.00;77.00;;;;;;5052668;28;20082;-71
2023/07/20 07:27:09;;;;;;;2.53;1.40;;;26.10;77.10;;;;;;5052684;28;20033;-71
2023/07/20 07:29:35;;;;;;;5.72;1.60;;;26.10;77.10;;;;;;5052380;28;20017;-72
2023/07/20 07:32:01;;;;;;;4.32;1.42;;;26.20;76.80;;;;;;5054555;28;20021;-73
2023/07/20 07:34:27;;;;;;;3.80;1.30;;;26.20;77.00;;;;;;5056727;28;20062;-72
2023/07/20 07:36:53;;;;;;;2.92;1.35;;;26.30;76.20;;;;;;5056772;28;20025;-72
2023/07/20 07:39:19;;;;;;;6.93;1.33;;;26.40;75.80;;;;;;5056559;28;20128;-72
2023/07/20 07:41:45;;;;;;;3.63;1.30;;;26.40;75.40;;;;;;5038591;28;20037;-73
2023/07/20 07:44:11;;;;;;;3.25;1.40;;;26.40;74.70;;;;;;5056638;28;20021;-72
2023/07/20 07:46:37;;;;;;;5.45;1.63;;;26.50;74.70;;;;;;5056101;28;20130;-74
2023/07/20 07:49:03;;;;;;;4.63;1.60;;;26.50;75.10;;;;;;5056328;28;20491;-73
2023/07/20 07:51:29;;;;;;;7.88;2.05;;;26.60;75.60;;;;;;5056218;28;20356;-73
2023/07/20 07:53:55;;;;;;;2.95;1.40;;;26.70;74.70;;;;;;5056364;28;20024;-73
2023/07/20 07:56:23;;;;;;;5.60;1.70;;;26.70;75.10;;;;;;5056213;28;20017;-73
2023/07/20 07:58:51;;;;;;;4.18;1.50;;;26.80;74.40;;;;;;5056468;28;20025;-73
2023/07/20 08:01:18;;;;;;;2.50;1.45;;;26.90;74.40;;;;;;5056246;28;20013;-73
2023/07/20 08:03:46;;;;;;;2.97;1.63;;;26.90;73.90;;;;;;5055923;28;20036;-73
2023/07/20 08:06:13;;;;;;;3.47;1.90;;;27.00;73.80;;;;;;5055972;28;20036;-72
2023/07/20 08:08:39;;;;;;;5.50;1.58;;;27.00;73.90;;;;;;5038340;28;20036;-72
2023/07/20 08:11:05;;;;;;;6.00;1.75;;;27.10;73.60;;;;;;5055897;28;20021;-72
2023/07/20 08:13:31;;;;;;;6.25;1.70;;;27.10;73.20;;;;;;5055862;28;20079;-72
2023/07/20 08:15:58;;;;;;;8.45;1.52;;;27.20;73.50;;;;;;5055700;28;20104;-72
2023/07/20 08:18:24;;;;;;;7.82;1.85;;;27.20;73.00;;;;;;5056009;28;20033;-72
2023/07/20 08:20:50;;;;;;;3.55;1.90;;;27.30;72.60;;;;;;5055902;28;20508;-73
2023/07/20 08:23:16;;;;;;;7.57;1.67;;;27.30;71.70;;;;;;5055672;28;20100;-72
2023/07/20 08:25:45;;;;;;;5.50;1.60;;;27.30;71.50;;;;;;5055343;28;20096;-72
2023/07/20 08:28:14;;;;;;;4.70;1.50;;;27.50;72.10;;;;;;5055791;28;20025;-72
2023/07/20 08:30:46;;;;;;;4.93;1.33;;;27.50;71.60;;;;;;5055919;28;20056;-72
2023/07/20 08:33:14;;;;;;;3.45;1.42;;;27.60;70.90;;;;;;5055835;28;20059;-72
2023/07/20 08:35:40;;;;;;;7.72;1.77;;;27.60;71.00;;;;;;5055640;28;20478;-73
2023/07/20 08:38:07;;;;;;;4.25;1.52;;;27.70;70.80;;;;;;5055243;28;20029;-73
2023/07/20 08:40:33;;;;;;;4.97;2.13;;;27.80;71.10;;;;;;5055554;28;20044;-73
2023/07/20 08:43:00;;;;;;;6.82;1.85;;;27.90;70.20;;;;;;5054765;28;20025;-73
2023/07/20 08:45:31;;;;;;;6.68;2.58;;;27.90;69.50;;;;;;5055279;28;20513;-73
2023/07/20 08:47:58;;;;;;;4.43;1.75;;;28.00;69.00;;;;;;5055064;28;20025;-73
2023/07/20 08:50:26;;;;;;;4.13;1.95;;;28.10;68.20;;;;;;5055293;28;20028;-73
2023/07/20 08:52:53;;;;;;;5.88;2.00;;;28.20;68.10;;;;;;5055105;28;20029;-73
2023/07/20 08:55:22;;;;;;;3.92;2.20;;;28.30;67.10;;;;;;5055196;28;20025;-72
2023/07/20 08:57:50;;;;;;;6.82;2.30;;;28.30;66.00;;;;;;5055301;28;20057;-72
2023/07/20 09:00:19;;;;;;;4.97;1.90;;;28.40;67.00;;;;;;5055103;28;20025;-72
2023/07/20 09:02:46;;;;;;;2.95;2.15;;;28.50;65.80;;;;;;5054936;28;20050;-72
2023/07/20 09:05:14;;;;;;;3.42;1.80;;;28.50;65.80;;;;;;5054793;28;20029;-72
2023/07/20 09:07:40;;;;;;;3.83;1.95;;;28.60;65.50;;;;;;5055134;28;20060;-72
2023/07/20 09:10:07;;;;;;;4.30;2.00;;;28.70;64.70;;;;;;5055030;28;20021;-73
2023/07/20 09:12:36;;;;;;;4.97;2.47;;;28.70;64.50;;;;;;5054789;28;20036;-72
2023/07/20 09:15:03;;;;;;;4.18;2.20;;;28.80;64.60;;;;;;5054814;28;20078;-72
2023/07/20 09:17:29;;;;;;;7.80;2.05;;;28.90;65.30;;;;;;5084786;22;20063;-73
2023/07/20 09:19:55;;;;;;;7.03;2.22;;;28.90;62.90;;;;;;5056681;28;20424;-73
2023/07/20 09:22:20;;;;;;;4.45;2.30;;;29.00;62.60;;;;;;5074440;28;20446;-73
2023/07/20 09:24:46;;;;;;;5.22;2.30;;;29.10;62.20;;;;;;5074700;28;20027;-73
2023/07/20 09:27:12;;;;;;;4.05;2.08;;;29.10;62.80;;;;;;5074985;28;20064;-73
2023/07/20 09:29:51;;;;;;;5.28;2.13;;;29.20;63.10;;;;;;5074531;28;20024;-73
2023/07/20 09:32:21;;;;;;;6.97;2.50;;;29.20;61.60;;;;;;5074385;28;20028;-73
2023/07/20 09:34:49;;;;;;;5.03;2.30;;;29.20;61.00;;;;;;5074309;28;20025;-73
2023/07/20 09:37:23;;;;;;;5.85;2.00;;;29.30;62.00;;;;;;5073993;28;20031;-72
2023/07/20 09:39:52;;;;;;;4.60;2.50;;;29.40;60.20;;;;;;5074226;28;20059;-73
2023/07/20 09:42:18;;;;;;;4.82;2.35;;;29.40;59.90;;;;;;5074229;28;20086;-73
2023/07/20 09:44:44;;;;;;;4.20;2.38;;;29.50;59.90;;;;;;5074067;28;20021;-72
2023/07/20 09:47:10;;;;;;;5.97;2.50;;;29.50;59.60;;;;;;5073974;28;20166;-73
2023/07/20 09:49:40;;;;;;;5.68;2.15;;;29.60;59.80;;;;;;5073911;28;20107;-73
2023/07/20 09:52:11;;;;;;;6.28;2.30;;;29.70;59.50;;;;;;5073820;28;20050;-73
2023/07/20 09:54:40;;;;;;;8.00;2.25;;;29.80;57.90;;;;;;5072954;28;20509;-73
2023/07/20 09:57:11;;;;;;;8.95;2.60;;;29.80;56.90;;;;;;5073408;28;20024;-72
2023/07/20 09:59:37;;;;;;;4.07;2.15;;;29.90;57.80;;;;;;5073618;28;20410;-73
2023/07/20 10:02:12;;;;;;;5.65;2.70;;;29.90;57.50;;;;;;5073599;28;20117;-73
2023/07/20 10:04:40;;;;;;;4.85;2.28;;;30.00;56.70;;;;;;5073757;28;20032;-73
2023/07/20 10:07:11;;;;;;;3.42;2.58;;;30.10;58.00;;;;;;5073560;28;20119;-73
2023/07/20 10:09:39;;;;;;;6.30;2.83;;;30.10;55.90;;;;;;5073532;28;20155;-73
2023/07/20 10:12:07;;;;;;;5.57;2.35;;;30.10;56.00;;;;;;5073692;28;20042;-73
2023/07/20 10:14:38;;;;;;;7.53;2.42;;;30.20;56.90;;;;;;5073557;28;20016;-72
2023/07/20 10:17:06;;;;;;;6.70;2.70;;;30.30;55.70;;;;;;5073212;28;20498;-73
2023/07/20 10:19:41;;;;;;;4.78;2.67;;;30.30;55.80;;;;;;5073183;28;20030;-73
2023/07/20 10:22:13;;;;;;;5.85;2.80;;;30.40;55.40;;;;;;5073300;28;20025;-73
2023/07/20 10:24:41;;;;;;;4.07;2.75;;;30.50;54.90;;;;;;5055302;28;20048;-73
2023/07/20 10:27:07;;;;;;;5.85;2.90;;;30.60;54.20;;;;;;5073208;28;20536;-73
2023/07/20 10:29:34;;;;;;;7.68;2.95;;;30.60;54.40;;;;;;5072980;28;20020;-74
2023/07/20 10:32:00;;;;;;;4.63;2.88;;;30.70;54.60;;;;;;5054981;28;20025;-73
2023/07/20 10:34:26;;;;;;;6.47;2.80;;;30.80;55.90;;;;;;5072843;28;20462;-72
2023/07/20 10:36:52;;;;;;;6.80;2.67;;;30.80;55.50;;;;;;5073111;28;20051;-73
2023/07/20 10:39:27;;;;;;;4.70;2.67;;;30.90;54.70;;;;;;5073098;28;20040;-73
2023/07/20 10:42:07;;;;;;;5.72;2.70;;;30.90;55.50;;;;;;5073077;28;20012;-73
2023/07/20 10:44:32;;;;;;;7.30;3.03;;;31.00;53.90;;;;;;5073086;28;20032;-73
2023/07/20 10:47:05;;;;;;;6.18;3.17;;;31.00;53.10;;;;;;5072718;28;20059;-73
2023/07/20 10:49:35;;;;;;;5.38;2.63;;;31.10;53.70;;;;;;5072879;28;20028;-73
2023/07/20 10:52:04;;;;;;;5.10;2.60;;;31.10;54.40;;;;;;5073067;28;20021;-73
2023/07/20 10:54:30;;;;;;;4.93;2.67;;;31.20;52.50;;;;;;5073069;28;20027;-73
2023/07/20 10:57:45;;;;;;;4.15;2.42;;;31.20;52.30;;;;;;5072952;28;20028;-73
2023/07/20 11:00:14;;;;;;;5.70;2.70;;;31.30;52.30;;;;;;5070325;28;20448;-73
2023/07/20 11:02:47;;;;;;;4.13;2.70;;;31.40;53.20;;;;;;5072560;28;20021;-73
2023/07/20 11:05:37;;;;;;;8.57;2.63;;;31.50;53.10;;;;;;5072698;28;20077;-73
2023/07/20 11:08:11;;;;;;;5.32;2.72;;;31.50;52.50;;;;;;5072280;28;20036;-73
2023/07/20 11:10:37;;;;;;;6.22;2.70;;;31.60;51.80;;;;;;5054691;28;20394;-73
2023/07/20 11:13:18;;;;;;;7.40;2.70;;;31.60;52.00;;;;;;5072454;28;20097;-73
2023/07/20 11:15:45;;;;;;;;;;;31.70;52.30;;;;;;5055390;28;20025;-73
2023/07/20 11:18:14;;;;;;;7.18;2.78;;;31.80;52.30;;;;;;5072391;28;19923;-73
2023/07/20 11:20:41;;;;;;;8.27;3.13;;;31.80;51.90;;;;;;5072346;28;20506;-73
2023/07/20 11:23:07;;;;;;;9.88;4.50;;;31.90;52.40;;;;;;5054290;28;20497;-73
2023/07/20 11:25:40;;;;;;;5.47;3.10;;;31.90;52.50;;;;;;5072232;28;20509;-73
2023/07/20 11:28:10;;;;;;;6.40;2.45;;;32.00;52.90;;;;;;5072640;28;20048;-73
2023/07/20 11:30:38;;;;;;;6.32;2.55;;;32.10;52.90;;;;;;5072521;28;20024;-73
2023/07/20 11:33:05;;;;;;;5.15;2.60;;;32.20;53.90;;;;;;5072266;28;20505;-73
2023/07/20 11:35:31;;;;;;;9.27;2.88;;;32.30;53.30;;;;;;5072347;28;20017;-73
2023/07/20 11:37:57;;;;;;;14.15;5.00;;;32.40;53.30;;;;;;5072366;28;20030;-73
2023/07/20 11:40:24;;;;;;;8.13;3.05;;;32.50;52.60;;;;;;5072290;28;20020;-73
2023/07/20 11:42:50;;;;;;;4.13;2.72;;;32.50;51.50;;;;;;5072429;28;20032;-73
2023/07/20 11:45:17;;;;;;;6.28;3.50;;;32.60;51.50;;;;;;5072316;28;20032;-73
2023/07/20 11:47:43;;;;;;;9.55;3.25;;;32.60;51.20;;;;;;5072186;28;20041;-72
2023/07/20 11:50:11;;;;;;;5.00;2.33;;;32.60;51.80;;;;;;5072358;28;20017;-72
2023/07/20 11:52:36;;;;;;;5.10;2.70;;;32.70;51.70;;;;;;5072208;28;20390;-73
2023/07/20 11:55:04;;;;;;;6.53;2.40;;;32.80;52.50;;;;;;5072118;28;20021;-73
2023/07/20 11:57:29;;;;;;;7.22;2.53;;;32.80;51.70;;;;;;5072201;28;20059;-73
2023/07/20 12:00:04;;;;;;;4.57;2.70;;;32.80;52.40;;;;;;5072453;28;20056;-73
2023/07/20 12:02:30;;;;;;;4.82;2.40;;;32.90;52.30;;;;;;5072298;28;20381;-73
2023/07/20 12:04:57;;;;;;;6.43;2.70;;;33.00;51.70;;;;;;5072251;28;20508;-73
2023/07/20 12:07:23;;;;;;;6.70;2.67;;;33.00;51.40;;;;;;5071964;28;20043;-73
2023/07/20 12:10:11;;;;;;;6.03;2.58;;;33.10;51.50;;;;;;5072214;28;20017;-73
2023/07/20 12:12:44;;;;;;;4.38;2.40;;;33.20;51.30;;;;;;5071967;28;20074;-73
2023/07/20 12:15:16;;;;;;;5.53;2.42;;;33.20;50.70;;;;;;5072099;28;20087;-73
2023/07/20 12:17:44;;;;;;;9.05;2.53;;;33.30;50.70;;;;;;5071760;28;20052;-73
2023/07/20 12:20:10;;;;;;;6.75;2.55;;;33.40;52.00;;;;;;5075465;28;20020;-73
2023/07/20 12:22:43;;;;;;;5.20;2.45;;;33.40;51.20;;;;;;5075657;28;20033;-73
2023/07/20 12:25:09;;;;;;;7.75;2.50;;;33.40;50.60;;;;;;5075719;28;20017;-73
2023/07/20 12:27:37;;;;;;;7.68;2.60;;;33.50;51.30;;;;;;5075577;28;20082;-73
2023/07/20 12:30:05;;;;;;;4.20;2.40;;;33.60;51.50;;;;;;5075652;28;20078;-73
2023/07/20 12:32:31;;;;;;;4.47;2.50;;;33.60;50.40;;;;;;5075422;28;20048;-73
2023/07/20 12:34:57;;;;;;;6.53;2.72;;;33.50;50.00;;;;;;5075536;28;20040;-73
2023/07/20 12:37:23;;;;;;;5.60;2.40;;;33.40;50.90;;;;;;5057450;28;20052;-73
2023/07/20 12:39:49;;;;;;;6.00;2.80;;;33.40;51.20;;;;;;5075255;28;20402;-73
2023/07/20 12:42:16;;;;;;;5.32;2.38;;;33.30;51.10;;;;;;5075202;28;20024;-73
2023/07/20 12:44:42;;;;;;;4.65;2.00;;;33.30;51.30;;;;;;5075068;28;20036;-73
2023/07/20 12:47:07;;;;;;;8.15;2.05;;;33.20;51.60;;;;;;5075063;28;20138;-73